createdAt,value
2023-03-04T00:02:33.491Z,-0.19
2023-03-04T00:05:36.029Z,-0.16
2023-03-04T00:08:38.014Z,-0.16
2023-03-04T00:11:40.228Z,-0.18
2023-03-04T00:14:41.169Z,-0.21
2023-03-04T00:17:41.015Z,-0.24
2023-03-04T00:20:42.051Z,-0.26
2023-03-04T00:23:43.051Z,-0.27
2023-03-04T00:26:44.214Z,-0.30
2023-03-04T00:29:44.149Z,-0.32
2023-03-04T00:32:46.103Z,-0.35
2023-03-04T00:35:49.236Z,-0.38
2023-03-04T00:38:49.086Z,-0.41
2023-03-04T00:41:49.063Z,-0.43
2023-03-04T00:44:50.092Z,-0.46
2023-03-04T00:47:50.082Z,-0.48
2023-03-04T00:50:50.112Z,-0.49
2023-03-04T00:53:50.107Z,-0.51
2023-03-04T00:56:51.090Z,-0.52
2023-03-04T00:59:52.396Z,-0.50
2023-03-04T01:03:01.104Z,-0.50
2023-03-04T01:06:02.304Z,-0.51
2023-03-04T01:09:02.121Z,-0.51
2023-03-04T01:12:04.103Z,-0.53
2023-03-04T01:15:04.112Z,-0.56
2023-03-04T01:18:13.184Z,-0.59
2023-03-04T01:21:13.249Z,-0.61
2023-03-04T01:24:16.175Z,-0.62
2023-03-04T01:27:16.202Z,-0.62
2023-03-04T01:30:19.192Z,-0.62
2023-03-04T01:33:20.282Z,-0.64
2023-03-04T01:36:26.336Z,-0.65
2023-03-04T01:39:27.179Z,-0.66
2023-03-04T01:42:34.156Z,-0.68
2023-03-04T01:45:34.197Z,-0.67
2023-03-04T01:48:43.173Z,-0.68
2023-03-04T01:51:47.313Z,-0.68
2023-03-04T01:54:47.405Z,-0.70
2023-03-04T01:57:48.273Z,-0.72
2023-03-04T02:00:50.326Z,-0.75
2023-03-04T02:03:51.219Z,-0.80
2023-03-04T02:06:52.269Z,-0.84
2023-03-04T02:09:53.208Z,-0.89
2023-03-04T02:12:54.255Z,-0.94
2023-03-04T02:15:55.276Z,-1.00
2023-03-04T02:19:15.256Z,-1.05
2023-03-04T02:22:15.232Z,-1.07
2023-03-04T02:25:19.380Z,-1.09
2023-03-04T02:28:20.308Z,-1.11
2023-03-04T02:31:46.243Z,-1.13
2023-03-04T02:34:48.253Z,-1.17
2023-03-04T02:37:49.315Z,-1.20
2023-03-04T02:40:52.283Z,-1.21
2023-03-04T02:43:58.915Z,-1.23
2023-03-04T02:47:01.285Z,-1.25
2023-03-04T02:50:01.286Z,-1.26
2023-03-04T02:53:01.312Z,-1.28
2023-03-04T02:56:03.798Z,-1.30
2023-03-04T02:59:04.394Z,-1.33
2023-03-04T03:02:06.366Z,-1.33
2023-03-04T03:05:07.303Z,-1.32
2023-03-04T03:08:08.338Z,-1.32
2023-03-04T03:11:10.352Z,-1.32
2023-03-04T03:14:13.364Z,-1.31
2023-03-04T03:17:15.675Z,-1.29
2023-03-04T03:20:16.540Z,-1.27
2023-03-04T03:23:18.329Z,-1.24
2023-03-04T03:26:18.331Z,-1.20
2023-03-04T03:29:19.350Z,-1.17
2023-03-04T03:32:19.384Z,-1.15
2023-03-04T03:35:19.441Z,-1.13
2023-03-04T03:38:19.374Z,-1.11
2023-03-04T03:41:20.376Z,-1.10
2023-03-04T03:44:20.372Z,-1.08
2023-03-04T03:47:21.422Z,-1.04
2023-03-04T03:50:21.406Z,-1.02
2023-03-04T03:53:22.385Z,-1.01
2023-03-04T03:56:22.429Z,-1.01
2023-03-04T03:59:22.456Z,-1.00
2023-03-04T04:02:25.211Z,-0.98
2023-03-04T04:05:25.529Z,-0.95
2023-03-04T04:08:29.652Z,-0.93
2023-03-04T04:11:30.485Z,-0.93
2023-03-04T04:14:31.536Z,-0.92
2023-03-04T04:17:32.503Z,-0.90
2023-03-04T04:20:35.465Z,-0.87
2023-03-04T04:23:39.430Z,-0.85
2023-03-04T04:26:39.711Z,-0.82
2023-03-04T04:29:41.645Z,-0.79
2023-03-04T04:32:42.477Z,-0.75
2023-03-04T04:35:42.514Z,-0.71
2023-03-04T04:38:42.478Z,-0.68
2023-03-04T04:41:49.286Z,-0.64
2023-03-04T04:44:50.531Z,-0.61
2023-03-04T04:47:51.474Z,-0.59
2023-03-04T04:50:51.465Z,-0.57
2023-03-04T04:53:52.480Z,-0.56
2023-03-04T04:56:54.538Z,-0.54
2023-03-04T04:59:56.547Z,-0.52
2023-03-04T05:02:57.502Z,-0.51
2023-03-04T05:05:59.850Z,-0.49
2023-03-04T05:09:01.502Z,-0.47
2023-03-04T05:12:01.538Z,-0.46
2023-03-04T05:15:01.509Z,-0.44
2023-03-04T05:18:01.608Z,-0.40
2023-03-04T05:21:08.602Z,-0.36
2023-03-04T05:24:10.581Z,-0.34
2023-03-04T05:27:10.549Z,-0.29
2023-03-04T05:30:11.561Z,-0.24
2023-03-04T05:33:11.567Z,-0.22
2023-03-04T05:36:13.918Z,-0.19
2023-03-04T05:39:14.554Z,-0.15
2023-03-04T05:42:14.623Z,-0.10
2023-03-04T05:45:14.575Z,-0.07
2023-03-04T05:48:14.603Z,-0.06
2023-03-04T05:51:15.587Z,-0.05
2023-03-04T05:54:15.588Z,-0.02
2023-03-04T05:57:15.683Z,0.04
2023-03-04T06:00:16.629Z,0.12
2023-03-04T06:03:19.661Z,0.20
2023-03-04T06:06:21.612Z,0.31
2023-03-04T06:09:23.601Z,0.53
2023-03-04T06:12:24.786Z,0.84
2023-03-04T06:15:26.769Z,0.98
2023-03-04T06:18:26.677Z,0.96
2023-03-04T06:21:27.975Z,0.84
2023-03-04T06:24:28.704Z,0.70
2023-03-04T06:27:32.680Z,0.65
2023-03-04T06:30:33.744Z,0.65
2023-03-04T06:33:34.666Z,0.61
2023-03-04T06:36:35.680Z,0.65
2023-03-04T06:39:39.691Z,0.68
2023-03-04T06:42:39.727Z,0.70
2023-03-04T06:45:42.716Z,0.74
2023-03-04T06:48:44.071Z,0.78
2023-03-04T06:51:44.952Z,0.78
2023-03-04T06:54:45.699Z,0.76
2023-03-04T06:57:48.605Z,0.81
2023-03-04T07:00:51.712Z,0.85
2023-03-04T07:03:52.908Z,0.95
2023-03-04T07:06:53.815Z,1.06
2023-03-04T07:09:55.747Z,1.21
2023-03-04T07:12:56.736Z,1.50
2023-03-04T07:16:03.745Z,1.97
2023-03-04T07:19:03.712Z,2.39
2023-03-04T07:22:09.769Z,2.76
2023-03-04T07:25:10.769Z,2.95
2023-03-04T07:28:04.881Z,3.01
2023-03-04T07:31:04.799Z,3.04
2023-03-04T07:34:05.843Z,2.97
2023-03-04T07:37:13.994Z,2.75
2023-03-04T07:40:14.754Z,2.47
2023-03-04T07:43:14.788Z,2.32
2023-03-04T07:46:16.870Z,2.23
2023-03-04T07:49:16.789Z,2.18
2023-03-04T07:52:20.833Z,2.22
2023-03-04T07:55:22.866Z,2.20
2023-03-04T07:58:25.993Z,2.17
2023-03-04T08:01:30.817Z,2.10
2023-03-04T08:04:30.866Z,2.09
2023-03-04T08:07:30.869Z,2.21
2023-03-04T08:10:34.848Z,2.26
2023-03-04T08:13:37.866Z,2.29
2023-03-04T08:16:38.851Z,2.26
2023-03-04T08:19:39.809Z,2.32
2023-03-04T08:22:41.950Z,2.33
2023-03-04T08:25:45.026Z,2.32
2023-03-04T08:28:48.128Z,2.32
2023-03-04T08:31:49.327Z,2.31
2023-03-04T08:34:49.961Z,2.33
2023-03-04T08:37:51.909Z,2.45
2023-03-04T08:40:58.009Z,2.62
2023-03-04T08:43:57.906Z,2.61
2023-03-04T08:46:58.884Z,2.41
2023-03-04T08:50:05.893Z,2.29
2023-03-04T08:53:06.894Z,2.25
2023-03-04T08:56:06.930Z,2.19
2023-03-04T08:59:08.895Z,2.15
2023-03-04T09:02:08.917Z,2.14
2023-03-04T09:05:08.933Z,2.07
2023-03-04T09:08:11.830Z,2.01
2023-03-04T09:11:11.930Z,1.99
2023-03-04T09:14:13.927Z,1.95
2023-03-04T09:17:18.212Z,1.93
2023-03-04T09:20:20.930Z,1.99
2023-03-04T09:23:21.156Z,2.08
2023-03-04T09:26:36.033Z,2.14
2023-03-04T09:29:36.997Z,2.20
2023-03-04T09:32:37.147Z,2.17
2023-03-04T09:35:39.543Z,2.13
2023-03-04T09:38:39.988Z,2.05
2023-03-04T09:41:57.237Z,2.01
2023-03-04T09:44:58.035Z,2.08
2023-03-04T09:47:58.028Z,2.20
2023-03-04T09:51:15.988Z,2.30
2023-03-04T09:54:23.012Z,2.30
2023-03-04T09:57:37.982Z,2.27
2023-03-04T10:00:46.078Z,2.27
2023-03-04T10:03:54.730Z,2.27
2023-03-04T10:07:00.268Z,2.23
2023-03-04T10:10:05.334Z,2.21
2023-03-04T10:13:13.197Z,2.19
2023-03-04T10:16:13.048Z,2.18
2023-03-04T10:19:32.065Z,2.18
2023-03-04T10:22:35.091Z,2.17
2023-03-04T10:25:38.304Z,2.15
2023-03-04T10:28:45.027Z,2.04
2023-03-04T10:31:48.120Z,1.90
2023-03-04T10:34:54.092Z,1.81
2023-03-04T10:38:02.066Z,1.76
2023-03-04T10:41:05.366Z,1.73
2023-03-04T10:44:15.078Z,1.70
2023-03-04T10:47:15.053Z,1.69
2023-03-04T10:50:18.049Z,1.62
2023-03-04T10:53:19.104Z,1.51
2023-03-04T10:56:46.129Z,1.47
2023-03-04T11:00:00.129Z,1.50
2023-03-04T11:03:04.697Z,1.70
2023-03-04T11:06:22.270Z,2.21
2023-03-04T11:09:46.208Z,2.94
2023-03-04T11:12:56.185Z,3.68
2023-03-04T11:16:06.119Z,4.12
2023-03-04T11:22:51.164Z,4.33
2023-03-04T11:25:57.144Z,4.36
2023-03-04T11:29:08.561Z,4.28
2023-03-04T11:32:46.423Z,3.99
2023-03-04T11:36:06.241Z,3.61
2023-03-04T11:39:06.160Z,3.33
2023-03-04T11:42:36.754Z,3.03
2023-03-04T11:46:06.196Z,2.80
2023-03-04T11:49:32.210Z,2.58
2023-03-04T11:52:58.211Z,2.41
2023-03-04T11:56:11.202Z,2.31
2023-03-04T11:59:14.270Z,2.24
2023-03-04T12:02:26.223Z,2.17
2023-03-04T12:05:40.397Z,2.12
2023-03-04T12:08:46.224Z,2.05
2023-03-04T12:11:52.241Z,2.06
2023-03-04T12:15:14.253Z,2.08
2023-03-04T12:18:27.271Z,2.08
2023-03-04T12:22:08.859Z,2.13
2023-03-04T12:25:28.414Z,2.15
2023-03-04T12:28:35.266Z,2.16
2023-03-04T12:31:43.279Z,2.11
2023-03-04T12:35:06.258Z,2.10
2023-03-04T12:38:23.265Z,2.08
2023-03-04T12:42:01.324Z,2.07
2023-03-04T12:45:49.501Z,2.02
2023-03-04T12:48:50.283Z,2.07
2023-03-04T12:51:44.296Z,2.10
2023-03-04T12:55:04.323Z,2.11
2023-03-04T12:58:04.315Z,2.13
2023-03-04T13:01:07.328Z,2.15
2023-03-04T13:04:18.312Z,2.15
2023-03-04T13:07:48.313Z,2.11
2023-03-04T13:10:48.323Z,2.05
2023-03-04T13:13:52.566Z,1.99
2023-03-04T13:16:59.461Z,1.96
2023-03-04T13:20:11.374Z,1.97
2023-03-04T13:23:15.383Z,1.97
2023-03-04T13:26:09.026Z,1.95
2023-03-04T13:29:44.427Z,1.91
2023-03-04T13:32:49.398Z,1.86
2023-03-04T13:36:12.330Z,1.83
2023-03-04T13:39:15.368Z,1.81
2023-03-04T13:42:15.367Z,1.81
2023-03-04T13:45:15.522Z,1.80
2023-03-04T13:48:16.483Z,1.75
2023-03-04T13:51:28.685Z,1.72
2023-03-04T13:54:33.381Z,1.71
2023-03-04T13:57:33.371Z,1.69
2023-03-04T14:00:33.440Z,1.67
2023-03-04T14:03:38.540Z,1.66
2023-03-04T14:06:39.484Z,1.63
2023-03-04T14:09:42.465Z,1.62
2023-03-04T14:12:44.460Z,1.62
2023-03-04T14:15:45.395Z,1.60
2023-03-04T14:18:45.420Z,1.58
2023-03-04T14:21:45.546Z,1.56
2023-03-04T14:24:45.437Z,1.52
2023-03-04T14:27:48.443Z,1.49
2023-03-04T14:30:49.503Z,1.47
2023-03-04T14:33:49.493Z,1.50
2023-03-04T14:36:56.523Z,1.52
2023-03-04T14:39:56.540Z,1.52
2023-03-04T14:42:58.507Z,1.53
2023-03-04T14:45:59.529Z,1.52
2023-03-04T14:49:02.537Z,1.53
2023-03-04T14:52:04.559Z,1.52
2023-03-04T14:55:36.501Z,1.51
2023-03-04T14:58:39.528Z,1.53
2023-03-04T15:01:46.474Z,1.54
2023-03-04T15:04:46.530Z,1.55
2023-03-04T15:07:47.497Z,1.55
2023-03-04T15:10:48.540Z,1.54
2023-03-04T15:14:00.622Z,1.53
2023-03-04T15:17:08.646Z,1.53
2023-03-04T15:20:33.049Z,1.54
2023-03-04T15:23:34.704Z,1.53
2023-03-04T15:26:37.780Z,1.54
2023-03-04T15:29:38.552Z,1.54
2023-03-04T15:32:41.570Z,1.53
2023-03-04T15:35:39.519Z,1.55
2023-03-04T15:38:40.754Z,1.55
2023-03-04T15:41:44.874Z,1.55
2023-03-04T15:44:50.124Z,1.55
2023-03-04T15:47:51.605Z,1.55
2023-03-04T15:51:14.300Z,1.55
2023-03-04T15:54:16.712Z,1.55
2023-03-04T15:57:19.729Z,1.56
2023-03-04T16:00:21.979Z,1.56
2023-03-04T16:03:45.073Z,1.56
2023-03-04T16:06:50.620Z,1.55
2023-03-04T16:09:50.641Z,1.55
2023-03-04T16:12:52.030Z,1.52
2023-03-04T16:15:57.714Z,1.49
2023-03-04T16:19:00.676Z,1.48
2023-03-04T16:22:01.676Z,1.45
2023-03-04T16:25:08.340Z,1.44
2023-03-04T16:28:13.727Z,1.43
2023-03-04T16:31:15.815Z,1.42
2023-03-04T16:34:16.637Z,1.41
2023-03-04T16:37:25.672Z,1.41
2023-03-04T16:40:27.699Z,1.40
2023-03-04T16:43:27.690Z,1.40
2023-03-04T16:46:28.733Z,1.40
2023-03-04T16:49:30.682Z,1.37
2023-03-04T16:52:43.648Z,1.36
2023-03-04T16:55:45.801Z,1.34
2023-03-04T16:58:48.190Z,1.32
2023-03-04T17:01:51.794Z,1.29
2023-03-04T17:04:58.785Z,1.25
2023-03-04T17:07:59.758Z,1.22
2023-03-04T17:11:04.093Z,1.22
2023-03-04T17:14:07.755Z,1.23
2023-03-04T17:17:13.193Z,1.23
2023-03-04T17:20:18.755Z,1.23
2023-03-04T17:23:18.823Z,1.21
2023-03-04T17:26:20.951Z,1.20
2023-03-04T17:29:22.782Z,1.20
2023-03-04T17:32:23.829Z,1.19
2023-03-04T17:35:26.172Z,1.19
2023-03-04T17:38:27.496Z,1.19
2023-03-04T17:41:28.773Z,1.18
2023-03-04T17:44:30.811Z,1.18
2023-03-04T17:47:30.797Z,1.19
2023-03-04T17:50:41.356Z,1.19
2023-03-04T17:53:50.326Z,1.18
2023-03-04T17:56:53.953Z,1.17
2023-03-04T18:00:00.169Z,1.15
2023-03-04T18:03:03.821Z,1.14
2023-03-04T18:06:03.848Z,1.14
2023-03-04T18:09:05.016Z,1.13
2023-03-04T18:12:08.894Z,1.13
2023-03-04T18:15:13.844Z,1.12
2023-03-04T18:18:16.913Z,1.13
2023-03-04T18:21:17.856Z,1.12
2023-03-04T18:24:18.893Z,1.11
2023-03-04T18:27:19.889Z,1.10
2023-03-04T18:30:26.945Z,1.11
2023-03-04T18:33:27.186Z,1.10
2023-03-04T18:36:27.878Z,1.12
2023-03-04T18:39:31.927Z,1.13
2023-03-04T18:42:32.903Z,1.13
2023-03-04T18:45:38.909Z,1.12
2023-03-04T18:48:48.002Z,1.11
2023-03-04T18:51:52.950Z,1.11
2023-03-04T18:54:53.884Z,1.11
2023-03-04T18:57:58.151Z,1.11
2023-03-04T19:00:58.992Z,1.11
2023-03-04T19:04:05.121Z,1.11
2023-03-04T19:10:45.542Z,1.12
2023-03-04T19:14:12.753Z,1.13
2023-03-04T19:17:57.500Z,1.12
2023-03-04T19:24:29.267Z,1.12
2023-03-04T19:30:54.984Z,1.05
2023-03-04T19:34:03.616Z,1.00
2023-03-04T19:37:05.944Z,0.96
2023-03-04T19:40:10.755Z,0.94
2023-03-04T19:43:18.151Z,0.92
2023-03-04T19:46:24.283Z,0.92
2023-03-04T19:49:44.979Z,0.87
2023-03-04T19:53:00.857Z,0.84
2023-03-04T19:56:08.009Z,0.82
2023-03-04T19:59:15.125Z,0.80
2023-03-04T20:02:18.972Z,0.81
2023-03-04T20:05:40.241Z,0.83
2023-03-04T20:08:40.999Z,0.81
2023-03-04T20:11:57.336Z,0.80
2023-03-04T20:15:05.809Z,0.82
2023-03-04T20:18:24.753Z,0.87
2023-03-04T20:21:43.700Z,0.93
2023-03-04T20:26:54.205Z,1.04
2023-03-04T20:30:04.759Z,1.07
2023-03-04T20:33:10.179Z,1.09
2023-03-04T20:36:18.038Z,1.09
2023-03-04T20:39:29.481Z,1.10
2023-03-04T20:42:30.379Z,1.09
2023-03-04T20:45:34.105Z,1.10
2023-03-04T20:48:36.113Z,0.95
2023-03-04T20:51:38.420Z,0.38
2023-03-04T20:54:39.154Z,-0.02
2023-03-04T20:57:42.171Z,-0.28
2023-03-04T21:00:45.117Z,-0.38
2023-03-04T21:03:47.226Z,-0.41
2023-03-04T21:06:52.702Z,-0.42
2023-03-04T21:09:57.556Z,-0.42
2023-03-04T21:12:58.394Z,-0.44
2023-03-04T21:15:58.387Z,-0.45
2023-03-04T21:19:01.178Z,-0.45
2023-03-04T21:21:59.260Z,-0.44
2023-03-04T21:25:00.171Z,-0.44
2023-03-04T21:28:04.438Z,-0.43
2023-03-04T21:31:06.229Z,-0.43
2023-03-04T21:34:14.180Z,-0.41
2023-03-04T21:37:23.192Z,-0.41
2023-03-04T21:40:23.184Z,-0.43
2023-03-04T21:43:28.242Z,-0.45
2023-03-04T21:46:29.268Z,-0.49
2023-03-04T21:49:29.236Z,-0.53
2023-03-04T21:52:32.239Z,-0.58
2023-03-04T21:55:32.286Z,-0.63
2023-03-04T21:58:32.400Z,-0.67
2023-03-04T22:01:33.259Z,-0.71
2023-03-04T22:04:33.288Z,-0.74
2023-03-04T22:07:34.224Z,-0.80
2023-03-04T22:10:37.294Z,-0.86
2023-03-04T22:13:39.265Z,-0.92
2023-03-04T22:16:54.089Z,-0.97
2023-03-04T22:19:56.330Z,-1.00
2023-03-04T22:22:58.426Z,-1.03
2023-03-04T22:25:59.334Z,-1.07
2023-03-04T22:28:59.351Z,-1.09
2023-03-04T22:32:00.465Z,-1.12
2023-03-04T22:35:06.337Z,-1.12
2023-03-04T22:38:07.330Z,-1.14
2023-03-04T22:41:07.499Z,-1.14
2023-03-04T22:44:09.503Z,-1.17
2023-03-04T22:47:10.392Z,-1.18
2023-03-04T22:50:10.367Z,-1.19
2023-03-04T22:53:12.338Z,-1.21
2023-03-04T22:56:12.390Z,-1.21
2023-03-04T22:59:12.339Z,-1.23
2023-03-04T23:02:17.419Z,-1.26
2023-03-04T23:05:20.393Z,-1.28
2023-03-04T23:08:21.366Z,-1.29
2023-03-04T23:11:27.512Z,-1.31
2023-03-04T23:14:28.523Z,-1.31
2023-03-04T23:17:29.377Z,-1.36
2023-03-04T23:20:31.407Z,-1.43
2023-03-04T23:23:32.390Z,-1.50
2023-03-04T23:26:38.459Z,-1.58
2023-03-04T23:29:42.698Z,-1.69
2023-03-04T23:32:42.645Z,-1.80
2023-03-04T23:35:42.456Z,-1.89
2023-03-04T23:38:43.450Z,-1.97
2023-03-04T23:41:45.430Z,-2.03
2023-03-04T23:44:45.421Z,-2.10
2023-03-04T23:47:47.654Z,-2.16
2023-03-04T23:50:49.428Z,-2.22
2023-03-04T23:53:49.447Z,-2.27
2023-03-04T23:56:50.653Z,-2.31
2023-03-04T23:59:53.429Z,-2.39
